<?xml version="1.0" encoding="UTF-8" standalone="no" ?>
<gpx xmlns="http://www.topografix.com/GPX/1/1" xmlns:xsi="http://www.w3.org/2001/XMLSchema-instance" xsi:schemaLocation="http://www.topografix.com/GPX/1/1 http://www.topografix.com/GPX/1/1/gpx.xsd" version="1.1" creator="VisuGPX - https://www.visugpx.com">
  <metadata>
    <name>Cirque de la Fontaine Salée depuis le hameau des Bories à Chastreix</name>
  </metadata>
  <wpt lat="45.51023" lon="2.75701">
    <ele>1162</ele>
    <name><![CDATA[Parking hameau des Bories]]></name>
  </wpt>
  <wpt lat="45.51072" lon="2.76424">
    <ele>1180.5</ele>
    <name><![CDATA[Les Lades]]></name>
  </wpt>
  <wpt lat="45.51285" lon="2.7652">
    <ele>1171.3</ele>
    <name><![CDATA[Croisement 1]]></name>
  </wpt>
  <wpt lat="45.51351" lon="2.76886">
    <ele>1185.2</ele>
    <name><![CDATA[Carrefour sentiers]]></name>
  </wpt>
  <wpt lat="45.51284" lon="2.77687">
    <ele>1275.9</ele>
    <name><![CDATA[Piste forestière]]></name>
  </wpt>
  <wpt lat="45.51064" lon="2.77843">
    <ele>1278.1</ele>
    <name><![CDATA[Direction la Fontaine Salée]]></name>
  </wpt>
  <wpt lat="45.51153" lon="2.79133">
    <ele>1350.9</ele>
    <name><![CDATA[Lisière de la forêt]]></name>
  </wpt>
  <wpt lat="45.51243" lon="2.79801">
    <ele>1336.5</ele>
    <name><![CDATA[Passerelle]]></name>
  </wpt>
  <wpt lat="45.51127" lon="2.79887">
    <ele>1343.8</ele>
    <name><![CDATA[Croisement GR30]]></name>
  </wpt>
  <wpt lat="45.49755" lon="2.78189">
    <ele>1214.3</ele>
    <name><![CDATA[La Morangie]]></name>
  </wpt>
  <wpt lat="45.49739" lon="2.77254">
    <ele>1188.2</ele>
    <name><![CDATA[Meynial]]></name>
  </wpt>
  <wpt lat="45.50779" lon="2.76298">
    <ele>1171.5</ele>
    <name><![CDATA[Route non goudronnée]]></name>
  </wpt>
  <wpt lat="45.5083" lon="2.75497">
    <ele>1135.4</ele>
    <name><![CDATA[Entrée terrain Terre d'Horizon]]></name>
  </wpt>
  <wpt lat="45.51026" lon="2.75697">
    <ele>1161.6</ele>
    <name><![CDATA[Parking hameau des Bories]]></name>
  </wpt>
  <trk>
    <name><![CDATA[Cirque de la Fontaine Salée depuis le hameau des Bories à Chastreix]]></name>
    <trkseg>
      <trkpt lat="45.51023" lon="2.75701">
        <ele>1162</ele>
        <time>2021-01-06T16:46:47+01:00</time>
      </trkpt>
      <trkpt lat="45.51041" lon="2.76071">
        <ele>1176</ele>
        <time>2021-01-06T16:46:52+01:00</time>
      </trkpt>
      <trkpt lat="45.51055" lon="2.76224">
        <ele>1178</ele>
        <time>2021-01-06T16:46:57+01:00</time>
      </trkpt>
      <trkpt lat="45.51083" lon="2.76381">
        <ele>1180</ele>
        <time>2021-01-06T16:47:02+01:00</time>
      </trkpt>
      <trkpt lat="45.51072" lon="2.76424">
        <ele>1181</ele>
        <time>2021-01-06T16:47:07+01:00</time>
      </trkpt>
      <trkpt lat="45.5109" lon="2.7642">
        <ele>1179</ele>
        <time>2021-01-06T16:47:12+01:00</time>
      </trkpt>
      <trkpt lat="45.51105" lon="2.76433">
        <ele>1178</ele>
        <time>2021-01-06T16:47:17+01:00</time>
      </trkpt>
      <trkpt lat="45.51148" lon="2.7644">
        <ele>1175</ele>
        <time>2021-01-06T16:47:22+01:00</time>
      </trkpt>
      <trkpt lat="45.51191" lon="2.76461">
        <ele>1174</ele>
        <time>2021-01-06T16:47:27+01:00</time>
      </trkpt>
      <trkpt lat="45.51213" lon="2.76429">
        <ele>1171</ele>
        <time>2021-01-06T16:47:32+01:00</time>
      </trkpt>
      <trkpt lat="45.51227" lon="2.76437">
        <ele>1172</ele>
        <time>2021-01-06T16:47:37+01:00</time>
      </trkpt>
      <trkpt lat="45.51234" lon="2.76455">
        <ele>1173</ele>
        <time>2021-01-06T16:47:42+01:00</time>
      </trkpt>
      <trkpt lat="45.51264" lon="2.76482">
        <ele>1172</ele>
        <time>2021-01-06T16:47:47+01:00</time>
      </trkpt>
      <trkpt lat="45.51285" lon="2.7652">
        <ele>1171</ele>
        <time>2021-01-06T16:47:52+01:00</time>
      </trkpt>
      <trkpt lat="45.51288" lon="2.76599">
        <ele>1179</ele>
        <time>2021-01-06T16:47:57+01:00</time>
      </trkpt>
      <trkpt lat="45.51283" lon="2.76672">
        <ele>1184</ele>
        <time>2021-01-06T16:48:02+01:00</time>
      </trkpt>
      <trkpt lat="45.51285" lon="2.76718">
        <ele>1187</ele>
        <time>2021-01-06T16:48:07+01:00</time>
      </trkpt>
      <trkpt lat="45.51298" lon="2.76767">
        <ele>1188</ele>
        <time>2021-01-06T16:48:12+01:00</time>
      </trkpt>
      <trkpt lat="45.51324" lon="2.76813">
        <ele>1189</ele>
        <time>2021-01-06T16:48:17+01:00</time>
      </trkpt>
      <trkpt lat="45.51334" lon="2.76852">
        <ele>1189</ele>
        <time>2021-01-06T16:48:22+01:00</time>
      </trkpt>
      <trkpt lat="45.51351" lon="2.76886">
        <ele>1185</ele>
        <time>2021-01-06T16:48:27+01:00</time>
      </trkpt>
      <trkpt lat="45.51337" lon="2.76911">
        <ele>1190</ele>
        <time>2021-01-06T16:48:32+01:00</time>
      </trkpt>
      <trkpt lat="45.51328" lon="2.76948">
        <ele>1192</ele>
        <time>2021-01-06T16:48:37+01:00</time>
      </trkpt>
      <trkpt lat="45.5132" lon="2.76976">
        <ele>1193</ele>
        <time>2021-01-06T16:48:42+01:00</time>
      </trkpt>
      <trkpt lat="45.51304" lon="2.77005">
        <ele>1195</ele>
        <time>2021-01-06T16:48:47+01:00</time>
      </trkpt>
      <trkpt lat="45.5129" lon="2.77072">
        <ele>1203</ele>
        <time>2021-01-06T16:48:52+01:00</time>
      </trkpt>
      <trkpt lat="45.5128" lon="2.77134">
        <ele>1214</ele>
        <time>2021-01-06T16:48:57+01:00</time>
      </trkpt>
      <trkpt lat="45.51298" lon="2.77165">
        <ele>1218</ele>
        <time>2021-01-06T16:49:02+01:00</time>
      </trkpt>
      <trkpt lat="45.51307" lon="2.7721">
        <ele>1225</ele>
        <time>2021-01-06T16:49:07+01:00</time>
      </trkpt>
      <trkpt lat="45.51304" lon="2.77238">
        <ele>1230</ele>
        <time>2021-01-06T16:49:12+01:00</time>
      </trkpt>
      <trkpt lat="45.51314" lon="2.77335">
        <ele>1243</ele>
        <time>2021-01-06T16:49:17+01:00</time>
      </trkpt>
      <trkpt lat="45.51309" lon="2.77383">
        <ele>1250</ele>
        <time>2021-01-06T16:49:22+01:00</time>
      </trkpt>
      <trkpt lat="45.5132" lon="2.77418">
        <ele>1254</ele>
        <time>2021-01-06T16:49:27+01:00</time>
      </trkpt>
      <trkpt lat="45.51328" lon="2.7746">
        <ele>1259</ele>
        <time>2021-01-06T16:49:32+01:00</time>
      </trkpt>
      <trkpt lat="45.51304" lon="2.77469">
        <ele>1260</ele>
        <time>2021-01-06T16:49:37+01:00</time>
      </trkpt>
      <trkpt lat="45.51307" lon="2.77482">
        <ele>1261</ele>
        <time>2021-01-06T16:49:42+01:00</time>
      </trkpt>
      <trkpt lat="45.51325" lon="2.77542">
        <ele>1268</ele>
        <time>2021-01-06T16:49:47+01:00</time>
      </trkpt>
      <trkpt lat="45.51335" lon="2.77568">
        <ele>1271</ele>
        <time>2021-01-06T16:49:52+01:00</time>
      </trkpt>
      <trkpt lat="45.51334" lon="2.77618">
        <ele>1275</ele>
        <time>2021-01-06T16:49:57+01:00</time>
      </trkpt>
      <trkpt lat="45.51374" lon="2.77654">
        <ele>1286</ele>
        <time>2021-01-06T16:50:02+01:00</time>
      </trkpt>
      <trkpt lat="45.51369" lon="2.77663">
        <ele>1286</ele>
        <time>2021-01-06T16:50:07+01:00</time>
      </trkpt>
      <trkpt lat="45.51341" lon="2.77674">
        <ele>1282</ele>
        <time>2021-01-06T16:50:12+01:00</time>
      </trkpt>
      <trkpt lat="45.51304" lon="2.77671">
        <ele>1277</ele>
        <time>2021-01-06T16:50:17+01:00</time>
      </trkpt>
      <trkpt lat="45.51284" lon="2.77687">
        <ele>1276</ele>
        <time>2021-01-06T16:50:22+01:00</time>
      </trkpt>
      <trkpt lat="45.51283" lon="2.77712">
        <ele>1277</ele>
        <time>2021-01-06T16:50:27+01:00</time>
      </trkpt>
      <trkpt lat="45.51272" lon="2.77726">
        <ele>1277</ele>
        <time>2021-01-06T16:50:32+01:00</time>
      </trkpt>
      <trkpt lat="45.51238" lon="2.77728">
        <ele>1275</ele>
        <time>2021-01-06T16:50:37+01:00</time>
      </trkpt>
      <trkpt lat="45.51222" lon="2.77747">
        <ele>1276</ele>
        <time>2021-01-06T16:50:42+01:00</time>
      </trkpt>
      <trkpt lat="45.51194" lon="2.77766">
        <ele>1277</ele>
        <time>2021-01-06T16:50:47+01:00</time>
      </trkpt>
      <trkpt lat="45.5115" lon="2.77789">
        <ele>1277</ele>
        <time>2021-01-06T16:50:52+01:00</time>
      </trkpt>
      <trkpt lat="45.51079" lon="2.77837">
        <ele>1279</ele>
        <time>2021-01-06T16:50:57+01:00</time>
      </trkpt>
      <trkpt lat="45.51064" lon="2.77843">
        <ele>1278</ele>
        <time>2021-01-06T16:51:02+01:00</time>
      </trkpt>
      <trkpt lat="45.51035" lon="2.77865">
        <ele>1278</ele>
        <time>2021-01-06T16:51:07+01:00</time>
      </trkpt>
      <trkpt lat="45.51018" lon="2.77897">
        <ele>1280</ele>
        <time>2021-01-06T16:51:12+01:00</time>
      </trkpt>
      <trkpt lat="45.51013" lon="2.77923">
        <ele>1283</ele>
        <time>2021-01-06T16:51:17+01:00</time>
      </trkpt>
      <trkpt lat="45.51026" lon="2.77976">
        <ele>1291</ele>
        <time>2021-01-06T16:51:22+01:00</time>
      </trkpt>
      <trkpt lat="45.51038" lon="2.78019">
        <ele>1297</ele>
        <time>2021-01-06T16:51:27+01:00</time>
      </trkpt>
      <trkpt lat="45.51049" lon="2.781">
        <ele>1306</ele>
        <time>2021-01-06T16:51:32+01:00</time>
      </trkpt>
      <trkpt lat="45.50986" lon="2.78213">
        <ele>1312</ele>
        <time>2021-01-06T16:51:37+01:00</time>
      </trkpt>
      <trkpt lat="45.50986" lon="2.78292">
        <ele>1316</ele>
        <time>2021-01-06T16:51:42+01:00</time>
      </trkpt>
      <trkpt lat="45.50995" lon="2.78353">
        <ele>1319</ele>
        <time>2021-01-06T16:51:47+01:00</time>
      </trkpt>
      <trkpt lat="45.50996" lon="2.78383">
        <ele>1320</ele>
        <time>2021-01-06T16:51:52+01:00</time>
      </trkpt>
      <trkpt lat="45.51012" lon="2.78482">
        <ele>1324</ele>
        <time>2021-01-06T16:51:57+01:00</time>
      </trkpt>
      <trkpt lat="45.51019" lon="2.78541">
        <ele>1328</ele>
        <time>2021-01-06T16:52:02+01:00</time>
      </trkpt>
      <trkpt lat="45.51023" lon="2.78563">
        <ele>1329</ele>
        <time>2021-01-06T16:52:07+01:00</time>
      </trkpt>
      <trkpt lat="45.51048" lon="2.78589">
        <ele>1332</ele>
        <time>2021-01-06T16:52:12+01:00</time>
      </trkpt>
      <trkpt lat="45.51076" lon="2.78641">
        <ele>1333</ele>
        <time>2021-01-06T16:52:17+01:00</time>
      </trkpt>
      <trkpt lat="45.5108" lon="2.78655">
        <ele>1333</ele>
        <time>2021-01-06T16:52:22+01:00</time>
      </trkpt>
      <trkpt lat="45.5108" lon="2.78695">
        <ele>1334</ele>
        <time>2021-01-06T16:52:27+01:00</time>
      </trkpt>
      <trkpt lat="45.51074" lon="2.78731">
        <ele>1334</ele>
        <time>2021-01-06T16:52:32+01:00</time>
      </trkpt>
      <trkpt lat="45.51043" lon="2.78789">
        <ele>1334</ele>
        <time>2021-01-06T16:52:37+01:00</time>
      </trkpt>
      <trkpt lat="45.51021" lon="2.78846">
        <ele>1334</ele>
        <time>2021-01-06T16:52:42+01:00</time>
      </trkpt>
      <trkpt lat="45.51021" lon="2.78874">
        <ele>1335</ele>
        <time>2021-01-06T16:52:47+01:00</time>
      </trkpt>
      <trkpt lat="45.51026" lon="2.78904">
        <ele>1336</ele>
        <time>2021-01-06T16:52:52+01:00</time>
      </trkpt>
      <trkpt lat="45.51036" lon="2.78924">
        <ele>1337</ele>
        <time>2021-01-06T16:52:57+01:00</time>
      </trkpt>
      <trkpt lat="45.51053" lon="2.78955">
        <ele>1339</ele>
        <time>2021-01-06T16:53:02+01:00</time>
      </trkpt>
      <trkpt lat="45.51102" lon="2.7906">
        <ele>1346</ele>
        <time>2021-01-06T16:53:07+01:00</time>
      </trkpt>
      <trkpt lat="45.51153" lon="2.79133">
        <ele>1351</ele>
        <time>2021-01-06T16:53:12+01:00</time>
      </trkpt>
      <trkpt lat="45.51093" lon="2.79193">
        <ele>1348</ele>
        <time>2021-01-06T16:53:17+01:00</time>
      </trkpt>
      <trkpt lat="45.51141" lon="2.79239">
        <ele>1349</ele>
        <time>2021-01-06T16:53:22+01:00</time>
      </trkpt>
      <trkpt lat="45.51193" lon="2.79301">
        <ele>1351</ele>
        <time>2021-01-06T16:53:27+01:00</time>
      </trkpt>
      <trkpt lat="45.5121" lon="2.79305">
        <ele>1352</ele>
        <time>2021-01-06T16:53:32+01:00</time>
      </trkpt>
      <trkpt lat="45.51222" lon="2.79329">
        <ele>1352</ele>
        <time>2021-01-06T16:53:37+01:00</time>
      </trkpt>
      <trkpt lat="45.51258" lon="2.79355">
        <ele>1354</ele>
        <time>2021-01-06T16:53:42+01:00</time>
      </trkpt>
      <trkpt lat="45.51298" lon="2.79364">
        <ele>1358</ele>
        <time>2021-01-06T16:53:47+01:00</time>
      </trkpt>
      <trkpt lat="45.51314" lon="2.79383">
        <ele>1358</ele>
        <time>2021-01-06T16:53:52+01:00</time>
      </trkpt>
      <trkpt lat="45.51339" lon="2.79391">
        <ele>1360</ele>
        <time>2021-01-06T16:53:57+01:00</time>
      </trkpt>
      <trkpt lat="45.51368" lon="2.79413">
        <ele>1362</ele>
        <time>2021-01-06T16:54:02+01:00</time>
      </trkpt>
      <trkpt lat="45.51395" lon="2.79444">
        <ele>1364</ele>
        <time>2021-01-06T16:54:07+01:00</time>
      </trkpt>
      <trkpt lat="45.514" lon="2.79522">
        <ele>1360</ele>
        <time>2021-01-06T16:54:12+01:00</time>
      </trkpt>
      <trkpt lat="45.51396" lon="2.79546">
        <ele>1357</ele>
        <time>2021-01-06T16:54:17+01:00</time>
      </trkpt>
      <trkpt lat="45.51389" lon="2.7957">
        <ele>1354</ele>
        <time>2021-01-06T16:54:22+01:00</time>
      </trkpt>
      <trkpt lat="45.51402" lon="2.79589">
        <ele>1354</ele>
        <time>2021-01-06T16:54:27+01:00</time>
      </trkpt>
      <trkpt lat="45.51374" lon="2.79616">
        <ele>1349</ele>
        <time>2021-01-06T16:54:32+01:00</time>
      </trkpt>
      <trkpt lat="45.51333" lon="2.7967">
        <ele>1342</ele>
        <time>2021-01-06T16:54:37+01:00</time>
      </trkpt>
      <trkpt lat="45.51298" lon="2.79676">
        <ele>1339</ele>
        <time>2021-01-06T16:54:42+01:00</time>
      </trkpt>
      <trkpt lat="45.5128" lon="2.7967">
        <ele>1338</ele>
        <time>2021-01-06T16:54:47+01:00</time>
      </trkpt>
      <trkpt lat="45.51243" lon="2.79684">
        <ele>1335</ele>
        <time>2021-01-06T16:54:52+01:00</time>
      </trkpt>
      <trkpt lat="45.51235" lon="2.79714">
        <ele>1334</ele>
        <time>2021-01-06T16:54:57+01:00</time>
      </trkpt>
      <trkpt lat="45.51206" lon="2.79757">
        <ele>1332</ele>
        <time>2021-01-06T16:55:02+01:00</time>
      </trkpt>
      <trkpt lat="45.51243" lon="2.79801">
        <ele>1337</ele>
        <time>2021-01-06T16:55:07+01:00</time>
      </trkpt>
      <trkpt lat="45.5124" lon="2.79832">
        <ele>1338</ele>
        <time>2021-01-06T16:55:12+01:00</time>
      </trkpt>
      <trkpt lat="45.51149" lon="2.79898">
        <ele>1342</ele>
        <time>2021-01-06T16:55:17+01:00</time>
      </trkpt>
      <trkpt lat="45.51127" lon="2.79887">
        <ele>1344</ele>
        <time>2021-01-06T16:55:22+01:00</time>
      </trkpt>
      <trkpt lat="45.51106" lon="2.7988">
        <ele>1346</ele>
        <time>2021-01-06T16:55:27+01:00</time>
      </trkpt>
      <trkpt lat="45.51078" lon="2.79852">
        <ele>1345</ele>
        <time>2021-01-06T16:55:32+01:00</time>
      </trkpt>
      <trkpt lat="45.5104" lon="2.79807">
        <ele>1344</ele>
        <time>2021-01-06T16:55:37+01:00</time>
      </trkpt>
      <trkpt lat="45.51002" lon="2.79748">
        <ele>1341</ele>
        <time>2021-01-06T16:55:42+01:00</time>
      </trkpt>
      <trkpt lat="45.50984" lon="2.79735">
        <ele>1340</ele>
        <time>2021-01-06T16:55:47+01:00</time>
      </trkpt>
      <trkpt lat="45.50949" lon="2.79704">
        <ele>1338</ele>
        <time>2021-01-06T16:55:52+01:00</time>
      </trkpt>
      <trkpt lat="45.5093" lon="2.79669">
        <ele>1332</ele>
        <time>2021-01-06T16:55:57+01:00</time>
      </trkpt>
      <trkpt lat="45.50871" lon="2.79615">
        <ele>1324</ele>
        <time>2021-01-06T16:56:02+01:00</time>
      </trkpt>
      <trkpt lat="45.50833" lon="2.79576">
        <ele>1318</ele>
        <time>2021-01-06T16:56:07+01:00</time>
      </trkpt>
      <trkpt lat="45.50806" lon="2.79553">
        <ele>1313</ele>
        <time>2021-01-06T16:56:12+01:00</time>
      </trkpt>
      <trkpt lat="45.50782" lon="2.79552">
        <ele>1313</ele>
        <time>2021-01-06T16:56:17+01:00</time>
      </trkpt>
      <trkpt lat="45.50767" lon="2.79534">
        <ele>1309</ele>
        <time>2021-01-06T16:56:22+01:00</time>
      </trkpt>
      <trkpt lat="45.5074" lon="2.79529">
        <ele>1308</ele>
        <time>2021-01-06T16:56:27+01:00</time>
      </trkpt>
      <trkpt lat="45.50728" lon="2.79522">
        <ele>1306</ele>
        <time>2021-01-06T16:56:32+01:00</time>
      </trkpt>
      <trkpt lat="45.50709" lon="2.7948">
        <ele>1299</ele>
        <time>2021-01-06T16:56:37+01:00</time>
      </trkpt>
      <trkpt lat="45.5069" lon="2.79474">
        <ele>1299</ele>
        <time>2021-01-06T16:56:42+01:00</time>
      </trkpt>
      <trkpt lat="45.50653" lon="2.794">
        <ele>1295</ele>
        <time>2021-01-06T16:56:47+01:00</time>
      </trkpt>
      <trkpt lat="45.5065" lon="2.79385">
        <ele>1293</ele>
        <time>2021-01-06T16:56:52+01:00</time>
      </trkpt>
      <trkpt lat="45.50639" lon="2.79372">
        <ele>1292</ele>
        <time>2021-01-06T16:56:57+01:00</time>
      </trkpt>
      <trkpt lat="45.50629" lon="2.79342">
        <ele>1290</ele>
        <time>2021-01-06T16:57:02+01:00</time>
      </trkpt>
      <trkpt lat="45.50618" lon="2.7932">
        <ele>1289</ele>
        <time>2021-01-06T16:57:07+01:00</time>
      </trkpt>
      <trkpt lat="45.50593" lon="2.79261">
        <ele>1289</ele>
        <time>2021-01-06T16:57:12+01:00</time>
      </trkpt>
      <trkpt lat="45.5058" lon="2.79213">
        <ele>1290</ele>
        <time>2021-01-06T16:57:17+01:00</time>
      </trkpt>
      <trkpt lat="45.50554" lon="2.79181">
        <ele>1290</ele>
        <time>2021-01-06T16:57:22+01:00</time>
      </trkpt>
      <trkpt lat="45.50547" lon="2.79139">
        <ele>1289</ele>
        <time>2021-01-06T16:57:27+01:00</time>
      </trkpt>
      <trkpt lat="45.50522" lon="2.79082">
        <ele>1290</ele>
        <time>2021-01-06T16:57:32+01:00</time>
      </trkpt>
      <trkpt lat="45.50471" lon="2.79029">
        <ele>1290</ele>
        <time>2021-01-06T16:57:37+01:00</time>
      </trkpt>
      <trkpt lat="45.5044" lon="2.79014">
        <ele>1291</ele>
        <time>2021-01-06T16:57:42+01:00</time>
      </trkpt>
      <trkpt lat="45.50433" lon="2.79021">
        <ele>1291</ele>
        <time>2021-01-06T16:57:47+01:00</time>
      </trkpt>
      <trkpt lat="45.50427" lon="2.79042">
        <ele>1292</ele>
        <time>2021-01-06T16:57:52+01:00</time>
      </trkpt>
      <trkpt lat="45.504" lon="2.79057">
        <ele>1293</ele>
        <time>2021-01-06T16:57:57+01:00</time>
      </trkpt>
      <trkpt lat="45.50388" lon="2.79057">
        <ele>1293</ele>
        <time>2021-01-06T16:58:02+01:00</time>
      </trkpt>
      <trkpt lat="45.50373" lon="2.79079">
        <ele>1294</ele>
        <time>2021-01-06T16:58:07+01:00</time>
      </trkpt>
      <trkpt lat="45.50303" lon="2.79053">
        <ele>1293</ele>
        <time>2021-01-06T16:58:12+01:00</time>
      </trkpt>
      <trkpt lat="45.50265" lon="2.79008">
        <ele>1292</ele>
        <time>2021-01-06T16:58:17+01:00</time>
      </trkpt>
      <trkpt lat="45.50234" lon="2.78993">
        <ele>1289</ele>
        <time>2021-01-06T16:58:22+01:00</time>
      </trkpt>
      <trkpt lat="45.50209" lon="2.78992">
        <ele>1287</ele>
        <time>2021-01-06T16:58:27+01:00</time>
      </trkpt>
      <trkpt lat="45.50193" lon="2.78981">
        <ele>1284</ele>
        <time>2021-01-06T16:58:32+01:00</time>
      </trkpt>
      <trkpt lat="45.50193" lon="2.78919">
        <ele>1282</ele>
        <time>2021-01-06T16:58:37+01:00</time>
      </trkpt>
      <trkpt lat="45.50183" lon="2.78894">
        <ele>1280</ele>
        <time>2021-01-06T16:58:42+01:00</time>
      </trkpt>
      <trkpt lat="45.50179" lon="2.78867">
        <ele>1278</ele>
        <time>2021-01-06T16:58:47+01:00</time>
      </trkpt>
      <trkpt lat="45.5018" lon="2.78839">
        <ele>1275</ele>
        <time>2021-01-06T16:58:52+01:00</time>
      </trkpt>
      <trkpt lat="45.50163" lon="2.78813">
        <ele>1275</ele>
        <time>2021-01-06T16:58:57+01:00</time>
      </trkpt>
      <trkpt lat="45.50149" lon="2.78783">
        <ele>1272</ele>
        <time>2021-01-06T16:59:02+01:00</time>
      </trkpt>
      <trkpt lat="45.50133" lon="2.78769">
        <ele>1272</ele>
        <time>2021-01-06T16:59:07+01:00</time>
      </trkpt>
      <trkpt lat="45.50113" lon="2.78714">
        <ele>1267</ele>
        <time>2021-01-06T16:59:12+01:00</time>
      </trkpt>
      <trkpt lat="45.50114" lon="2.78698">
        <ele>1265</ele>
        <time>2021-01-06T16:59:17+01:00</time>
      </trkpt>
      <trkpt lat="45.50091" lon="2.78681">
        <ele>1267</ele>
        <time>2021-01-06T16:59:22+01:00</time>
      </trkpt>
      <trkpt lat="45.50081" lon="2.78652">
        <ele>1265</ele>
        <time>2021-01-06T16:59:27+01:00</time>
      </trkpt>
      <trkpt lat="45.50076" lon="2.78623">
        <ele>1261</ele>
        <time>2021-01-06T16:59:32+01:00</time>
      </trkpt>
      <trkpt lat="45.50066" lon="2.7856">
        <ele>1252</ele>
        <time>2021-01-06T16:59:37+01:00</time>
      </trkpt>
      <trkpt lat="45.50033" lon="2.78497">
        <ele>1249</ele>
        <time>2021-01-06T16:59:42+01:00</time>
      </trkpt>
      <trkpt lat="45.50004" lon="2.78458">
        <ele>1247</ele>
        <time>2021-01-06T16:59:47+01:00</time>
      </trkpt>
      <trkpt lat="45.49991" lon="2.78453">
        <ele>1247</ele>
        <time>2021-01-06T16:59:52+01:00</time>
      </trkpt>
      <trkpt lat="45.49977" lon="2.78428">
        <ele>1243</ele>
        <time>2021-01-06T16:59:57+01:00</time>
      </trkpt>
      <trkpt lat="45.49958" lon="2.78408">
        <ele>1241</ele>
        <time>2021-01-06T17:00:02+01:00</time>
      </trkpt>
      <trkpt lat="45.49954" lon="2.78367">
        <ele>1233</ele>
        <time>2021-01-06T17:00:07+01:00</time>
      </trkpt>
      <trkpt lat="45.49942" lon="2.78335">
        <ele>1227</ele>
        <time>2021-01-06T17:00:12+01:00</time>
      </trkpt>
      <trkpt lat="45.49915" lon="2.78309">
        <ele>1224</ele>
        <time>2021-01-06T17:00:17+01:00</time>
      </trkpt>
      <trkpt lat="45.49904" lon="2.78307">
        <ele>1225</ele>
        <time>2021-01-06T17:00:22+01:00</time>
      </trkpt>
      <trkpt lat="45.49867" lon="2.78268">
        <ele>1224</ele>
        <time>2021-01-06T17:00:27+01:00</time>
      </trkpt>
      <trkpt lat="45.49855" lon="2.7824">
        <ele>1221</ele>
        <time>2021-01-06T17:00:32+01:00</time>
      </trkpt>
      <trkpt lat="45.49813" lon="2.78196">
        <ele>1217</ele>
        <time>2021-01-06T17:00:37+01:00</time>
      </trkpt>
      <trkpt lat="45.498" lon="2.78192">
        <ele>1216</ele>
        <time>2021-01-06T17:00:42+01:00</time>
      </trkpt>
      <trkpt lat="45.49755" lon="2.78189">
        <ele>1214</ele>
        <time>2021-01-06T17:00:47+01:00</time>
      </trkpt>
      <trkpt lat="45.49761" lon="2.78161">
        <ele>1210</ele>
        <time>2021-01-06T17:00:52+01:00</time>
      </trkpt>
      <trkpt lat="45.49772" lon="2.7813">
        <ele>1206</ele>
        <time>2021-01-06T17:00:57+01:00</time>
      </trkpt>
      <trkpt lat="45.49769" lon="2.78065">
        <ele>1197</ele>
        <time>2021-01-06T17:01:02+01:00</time>
      </trkpt>
      <trkpt lat="45.49751" lon="2.7803">
        <ele>1193</ele>
        <time>2021-01-06T17:01:07+01:00</time>
      </trkpt>
      <trkpt lat="45.49738" lon="2.78017">
        <ele>1191</ele>
        <time>2021-01-06T17:01:12+01:00</time>
      </trkpt>
      <trkpt lat="45.49723" lon="2.77982">
        <ele>1187</ele>
        <time>2021-01-06T17:01:17+01:00</time>
      </trkpt>
      <trkpt lat="45.49721" lon="2.77953">
        <ele>1186</ele>
        <time>2021-01-06T17:01:22+01:00</time>
      </trkpt>
      <trkpt lat="45.49664" lon="2.77839">
        <ele>1176</ele>
        <time>2021-01-06T17:01:27+01:00</time>
      </trkpt>
      <trkpt lat="45.49656" lon="2.77819">
        <ele>1175</ele>
        <time>2021-01-06T17:01:32+01:00</time>
      </trkpt>
      <trkpt lat="45.49637" lon="2.77791">
        <ele>1174</ele>
        <time>2021-01-06T17:01:37+01:00</time>
      </trkpt>
      <trkpt lat="45.49664" lon="2.77742">
        <ele>1173</ele>
        <time>2021-01-06T17:01:42+01:00</time>
      </trkpt>
      <trkpt lat="45.49682" lon="2.77661">
        <ele>1180</ele>
        <time>2021-01-06T17:01:47+01:00</time>
      </trkpt>
      <trkpt lat="45.49684" lon="2.77532">
        <ele>1183</ele>
        <time>2021-01-06T17:01:52+01:00</time>
      </trkpt>
      <trkpt lat="45.49705" lon="2.77434">
        <ele>1188</ele>
        <time>2021-01-06T17:01:57+01:00</time>
      </trkpt>
      <trkpt lat="45.4973" lon="2.77328">
        <ele>1189</ele>
        <time>2021-01-06T17:02:02+01:00</time>
      </trkpt>
      <trkpt lat="45.49739" lon="2.77254">
        <ele>1188</ele>
        <time>2021-01-06T17:02:07+01:00</time>
      </trkpt>
      <trkpt lat="45.49758" lon="2.77249">
        <ele>1189</ele>
        <time>2021-01-06T17:02:12+01:00</time>
      </trkpt>
      <trkpt lat="45.49808" lon="2.77204">
        <ele>1190</ele>
        <time>2021-01-06T17:02:17+01:00</time>
      </trkpt>
      <trkpt lat="45.49865" lon="2.77175">
        <ele>1194</ele>
        <time>2021-01-06T17:02:22+01:00</time>
      </trkpt>
      <trkpt lat="45.49916" lon="2.7709">
        <ele>1200</ele>
        <time>2021-01-06T17:02:27+01:00</time>
      </trkpt>
      <trkpt lat="45.49937" lon="2.77075">
        <ele>1202</ele>
        <time>2021-01-06T17:02:32+01:00</time>
      </trkpt>
      <trkpt lat="45.49991" lon="2.77057">
        <ele>1206</ele>
        <time>2021-01-06T17:02:37+01:00</time>
      </trkpt>
      <trkpt lat="45.50043" lon="2.7691">
        <ele>1215</ele>
        <time>2021-01-06T17:02:42+01:00</time>
      </trkpt>
      <trkpt lat="45.50064" lon="2.76794">
        <ele>1214</ele>
        <time>2021-01-06T17:02:47+01:00</time>
      </trkpt>
      <trkpt lat="45.501" lon="2.76731">
        <ele>1210</ele>
        <time>2021-01-06T17:02:52+01:00</time>
      </trkpt>
      <trkpt lat="45.5019" lon="2.76709">
        <ele>1206</ele>
        <time>2021-01-06T17:02:57+01:00</time>
      </trkpt>
      <trkpt lat="45.50221" lon="2.76671">
        <ele>1204</ele>
        <time>2021-01-06T17:03:02+01:00</time>
      </trkpt>
      <trkpt lat="45.50275" lon="2.76441">
        <ele>1203</ele>
        <time>2021-01-06T17:03:07+01:00</time>
      </trkpt>
      <trkpt lat="45.50322" lon="2.76265">
        <ele>1209</ele>
        <time>2021-01-06T17:03:12+01:00</time>
      </trkpt>
      <trkpt lat="45.50381" lon="2.76238">
        <ele>1205</ele>
        <time>2021-01-06T17:03:17+01:00</time>
      </trkpt>
      <trkpt lat="45.50443" lon="2.76234">
        <ele>1199</ele>
        <time>2021-01-06T17:03:22+01:00</time>
      </trkpt>
      <trkpt lat="45.50517" lon="2.76274">
        <ele>1201</ele>
        <time>2021-01-06T17:03:27+01:00</time>
      </trkpt>
      <trkpt lat="45.50589" lon="2.76286">
        <ele>1195</ele>
        <time>2021-01-06T17:03:32+01:00</time>
      </trkpt>
      <trkpt lat="45.50619" lon="2.76302">
        <ele>1193</ele>
        <time>2021-01-06T17:03:37+01:00</time>
      </trkpt>
      <trkpt lat="45.50653" lon="2.76317">
        <ele>1191</ele>
        <time>2021-01-06T17:03:42+01:00</time>
      </trkpt>
      <trkpt lat="45.50692" lon="2.76328">
        <ele>1185</ele>
        <time>2021-01-06T17:03:47+01:00</time>
      </trkpt>
      <trkpt lat="45.50728" lon="2.76362">
        <ele>1184</ele>
        <time>2021-01-06T17:03:52+01:00</time>
      </trkpt>
      <trkpt lat="45.50743" lon="2.76356">
        <ele>1180</ele>
        <time>2021-01-06T17:03:57+01:00</time>
      </trkpt>
      <trkpt lat="45.50764" lon="2.76325">
        <ele>1173</ele>
        <time>2021-01-06T17:04:02+01:00</time>
      </trkpt>
      <trkpt lat="45.50779" lon="2.76298">
        <ele>1172</ele>
        <time>2021-01-06T17:04:07+01:00</time>
      </trkpt>
      <trkpt lat="45.5088" lon="2.76303">
        <ele>1175</ele>
        <time>2021-01-06T17:04:12+01:00</time>
      </trkpt>
      <trkpt lat="45.50898" lon="2.7638">
        <ele>1179</ele>
        <time>2021-01-06T17:04:17+01:00</time>
      </trkpt>
      <trkpt lat="45.50926" lon="2.76453">
        <ele>1182</ele>
        <time>2021-01-06T17:04:22+01:00</time>
      </trkpt>
      <trkpt lat="45.51023" lon="2.76457">
        <ele>1182</ele>
        <time>2021-01-06T17:04:27+01:00</time>
      </trkpt>
      <trkpt lat="45.51038" lon="2.7647">
        <ele>1182</ele>
        <time>2021-01-06T17:04:32+01:00</time>
      </trkpt>
      <trkpt lat="45.51075" lon="2.76425">
        <ele>1180</ele>
        <time>2021-01-06T17:04:37+01:00</time>
      </trkpt>
      <trkpt lat="45.51081" lon="2.76367">
        <ele>1179</ele>
        <time>2021-01-06T17:04:42+01:00</time>
      </trkpt>
      <trkpt lat="45.51056" lon="2.76225">
        <ele>1178</ele>
        <time>2021-01-06T17:04:47+01:00</time>
      </trkpt>
      <trkpt lat="45.51039" lon="2.76043">
        <ele>1176</ele>
        <time>2021-01-06T17:04:52+01:00</time>
      </trkpt>
      <trkpt lat="45.51027" lon="2.75682">
        <ele>1161</ele>
        <time>2021-01-06T17:04:57+01:00</time>
      </trkpt>
      <trkpt lat="45.50945" lon="2.75586">
        <ele>1151</ele>
        <time>2021-01-06T17:05:02+01:00</time>
      </trkpt>
      <trkpt lat="45.5083" lon="2.75497">
        <ele>1135</ele>
        <time>2021-01-06T17:05:07+01:00</time>
      </trkpt>
      <trkpt lat="45.50862" lon="2.75526">
        <ele>1140</ele>
        <time>2021-01-06T17:05:12+01:00</time>
      </trkpt>
      <trkpt lat="45.5088" lon="2.75538">
        <ele>1142</ele>
        <time>2021-01-06T17:05:17+01:00</time>
      </trkpt>
      <trkpt lat="45.50932" lon="2.75573">
        <ele>1149</ele>
        <time>2021-01-06T17:05:22+01:00</time>
      </trkpt>
      <trkpt lat="45.50961" lon="2.75607">
        <ele>1153</ele>
        <time>2021-01-06T17:05:27+01:00</time>
      </trkpt>
      <trkpt lat="45.51004" lon="2.75653">
        <ele>1160</ele>
        <time>2021-01-06T17:05:32+01:00</time>
      </trkpt>
      <trkpt lat="45.51019" lon="2.75677">
        <ele>1161</ele>
        <time>2021-01-06T17:05:37+01:00</time>
      </trkpt>
      <trkpt lat="45.51032" lon="2.75706">
        <ele>1162</ele>
        <time>2021-01-06T17:05:42+01:00</time>
      </trkpt>
      <trkpt lat="45.51035" lon="2.75701">
        <ele>1161</ele>
        <time>2021-01-06T17:05:47+01:00</time>
      </trkpt>
      <trkpt lat="45.5102" lon="2.75701">
        <ele>1162</ele>
        <time>2021-01-06T17:05:52+01:00</time>
      </trkpt>
      <trkpt lat="45.51026" lon="2.75697">
        <ele>1162</ele>
        <time>2021-01-06T17:05:57+01:00</time>
      </trkpt>
    </trkseg>
  </trk>
</gpx>